sensor_id;sensor_type;location;lat;lon;timestamp;P1;durP1;ratioP1;P2;durP2;ratioP2
81036;SDS011;70521;47.468;19.306;2024-03-25T00:00:12;19.77;;;18.88;;
81036;SDS011;70521;47.468;19.306;2024-03-25T00:03:14;21.25;;;20.33;;
81036;SDS011;70521;47.468;19.306;2024-03-25T00:06:14;26.35;;;25.25;;
81036;SDS011;70521;47.468;19.306;2024-03-25T00:09:15;18.33;;;17.38;;
81036;SDS011;70521;47.468;19.306;2024-03-25T00:12:16;25.00;;;24.00;;
81036;SDS011;70521;47.468;19.306;2024-03-25T00:15:17;15.73;;;14.93;;
81036;SDS011;70521;47.468;19.306;2024-03-25T00:18:20;17.42;;;16.42;;
81036;SDS011;70521;47.468;19.306;2024-03-25T00:21:21;14.95;;;14.23;;
81036;SDS011;70521;47.468;19.306;2024-03-25T00:24:21;12.50;;;11.82;;
81036;SDS011;70521;47.468;19.306;2024-03-25T00:27:22;17.15;;;16.42;;
81036;SDS011;70521;47.468;19.306;2024-03-25T00:30:23;24.60;;;23.65;;
81036;SDS011;70521;47.468;19.306;2024-03-25T00:33:24;13.88;;;13.13;;
81036;SDS011;70521;47.468;19.306;2024-03-25T00:36:25;17.77;;;16.90;;
81036;SDS011;70521;47.468;19.306;2024-03-25T00:39:27;19.58;;;18.42;;
81036;SDS011;70521;47.468;19.306;2024-03-25T00:42:28;34.85;;;33.45;;
81036;SDS011;70521;47.468;19.306;2024-03-25T00:45:29;14.18;;;13.23;;
81036;SDS011;70521;47.468;19.306;2024-03-25T00:48:31;25.40;;;24.10;;
81036;SDS011;70521;47.468;19.306;2024-03-25T00:51:32;21.20;;;20.20;;
81036;SDS011;70521;47.468;19.306;2024-03-25T00:54:33;20.15;;;19.15;;
81036;SDS011;70521;47.468;19.306;2024-03-25T00:57:34;17.15;;;16.35;;
81036;SDS011;70521;47.468;19.306;2024-03-25T01:00:35;24.38;;;23.45;;
81036;SDS011;70521;47.468;19.306;2024-03-25T01:03:36;18.00;;;17.15;;
81036;SDS011;70521;47.468;19.306;2024-03-25T01:06:37;18.90;;;18.10;;
81036;SDS011;70521;47.468;19.306;2024-03-25T01:09:38;15.93;;;15.23;;
81036;SDS011;70521;47.468;19.306;2024-03-25T01:12:39;21.27;;;20.42;;
81036;SDS011;70521;47.468;19.306;2024-03-25T01:15:40;16.60;;;15.82;;
81036;SDS011;70521;47.468;19.306;2024-03-25T01:18:41;19.02;;;18.23;;
81036;SDS011;70521;47.468;19.306;2024-03-25T01:21:41;17.90;;;17.10;;
81036;SDS011;70521;47.468;19.306;2024-03-25T01:24:42;16.85;;;16.23;;
81036;SDS011;70521;47.468;19.306;2024-03-25T01:27:43;17.17;;;16.33;;
81036;SDS011;70521;47.468;19.306;2024-03-25T01:30:44;12.07;;;11.45;;
81036;SDS011;70521;47.468;19.306;2024-03-25T01:33:45;15.30;;;14.70;;
81036;SDS011;70521;47.468;19.306;2024-03-25T01:36:46;11.65;;;11.18;;
81036;SDS011;70521;47.468;19.306;2024-03-25T01:39:47;14.07;;;13.32;;
81036;SDS011;70521;47.468;19.306;2024-03-25T01:42:57;17.90;;;17.17;;
81036;SDS011;70521;47.468;19.306;2024-03-25T01:45:58;12.80;;;12.07;;
81036;SDS011;70521;47.468;19.306;2024-03-25T01:48:59;15.90;;;15.20;;
81036;SDS011;70521;47.468;19.306;2024-03-25T01:52:00;12.60;;;12.00;;
81036;SDS011;70521;47.468;19.306;2024-03-25T01:55:01;14.00;;;13.27;;
81036;SDS011;70521;47.468;19.306;2024-03-25T01:58:04;16.55;;;15.88;;
81036;SDS011;70521;47.468;19.306;2024-03-25T02:01:05;16.88;;;16.25;;
81036;SDS011;70521;47.468;19.306;2024-03-25T02:04:06;16.52;;;15.82;;
81036;SDS011;70521;47.468;19.306;2024-03-25T02:07:08;15.65;;;15.00;;
81036;SDS011;70521;47.468;19.306;2024-03-25T02:10:09;14.10;;;13.45;;
81036;SDS011;70521;47.468;19.306;2024-03-25T02:13:16;12.80;;;11.90;;
81036;SDS011;70521;47.468;19.306;2024-03-25T02:16:17;15.48;;;14.88;;
81036;SDS011;70521;47.468;19.306;2024-03-25T02:19:18;15.27;;;14.55;;
81036;SDS011;70521;47.468;19.306;2024-03-25T02:22:19;27.15;;;26.20;;
81036;SDS011;70521;47.468;19.306;2024-03-25T02:25:20;22.02;;;21.23;;
81036;SDS011;70521;47.468;19.306;2024-03-25T02:28:22;33.28;;;32.20;;
81036;SDS011;70521;47.468;19.306;2024-03-25T02:31:23;21.70;;;20.75;;
81036;SDS011;70521;47.468;19.306;2024-03-25T02:34:23;20.45;;;19.73;;
81036;SDS011;70521;47.468;19.306;2024-03-25T02:37:25;18.70;;;17.92;;
81036;SDS011;70521;47.468;19.306;2024-03-25T02:40:26;25.08;;;23.95;;
81036;SDS011;70521;47.468;19.306;2024-03-25T02:43:27;11.65;;;11.15;;
81036;SDS011;70521;47.468;19.306;2024-03-25T02:46:28;19.25;;;18.55;;
81036;SDS011;70521;47.468;19.306;2024-03-25T02:49:29;9.75;;;9.10;;
81036;SDS011;70521;47.468;19.306;2024-03-25T02:52:31;15.98;;;15.27;;
81036;SDS011;70521;47.468;19.306;2024-03-25T02:55:32;13.45;;;12.80;;
81036;SDS011;70521;47.468;19.306;2024-03-25T02:58:32;21.13;;;20.17;;
81036;SDS011;70521;47.468;19.306;2024-03-25T03:01:33;14.40;;;13.55;;
81036;SDS011;70521;47.468;19.306;2024-03-25T03:04:34;17.77;;;17.05;;
81036;SDS011;70521;47.468;19.306;2024-03-25T03:07:35;14.30;;;13.63;;
81036;SDS011;70521;47.468;19.306;2024-03-25T03:10:36;15.82;;;15.13;;
81036;SDS011;70521;47.468;19.306;2024-03-25T03:13:37;13.30;;;12.80;;
81036;SDS011;70521;47.468;19.306;2024-03-25T03:16:37;20.02;;;19.25;;
81036;SDS011;70521;47.468;19.306;2024-03-25T03:19:38;17.77;;;17.02;;
81036;SDS011;70521;47.468;19.306;2024-03-25T03:22:39;18.70;;;18.00;;
81036;SDS011;70521;47.468;19.306;2024-03-25T03:25:40;16.90;;;16.30;;
81036;SDS011;70521;47.468;19.306;2024-03-25T03:28:41;13.63;;;12.73;;
81036;SDS011;70521;47.468;19.306;2024-03-25T03:31:42;14.35;;;13.73;;
81036;SDS011;70521;47.468;19.306;2024-03-25T03:34:43;12.07;;;11.55;;
81036;SDS011;70521;47.468;19.306;2024-03-25T03:37:44;11.70;;;10.90;;
81036;SDS011;70521;47.468;19.306;2024-03-25T03:40:55;15.15;;;14.40;;
81036;SDS011;70521;47.468;19.306;2024-03-25T03:43:56;19.92;;;19.13;;
81036;SDS011;70521;47.468;19.306;2024-03-25T03:46:57;16.35;;;15.73;;
81036;SDS011;70521;47.468;19.306;2024-03-25T03:49:58;17.20;;;16.52;;
81036;SDS011;70521;47.468;19.306;2024-03-25T03:52:59;15.05;;;14.32;;
81036;SDS011;70521;47.468;19.306;2024-03-25T03:56:04;15.00;;;14.30;;
81036;SDS011;70521;47.468;19.306;2024-03-25T03:59:08;12.02;;;11.45;;
81036;SDS011;70521;47.468;19.306;2024-03-25T04:02:09;16.75;;;15.93;;
81036;SDS011;70521;47.468;19.306;2024-03-25T04:05:10;13.48;;;12.93;;
81036;SDS011;70521;47.468;19.306;2024-03-25T04:08:11;11.48;;;10.88;;
81036;SDS011;70521;47.468;19.306;2024-03-25T04:11:12;16.52;;;15.80;;
81036;SDS011;70521;47.468;19.306;2024-03-25T04:14:13;14.98;;;14.38;;
81036;SDS011;70521;47.468;19.306;2024-03-25T04:17:15;12.40;;;11.85;;
81036;SDS011;70521;47.468;19.306;2024-03-25T04:20:16;15.50;;;14.90;;
81036;SDS011;70521;47.468;19.306;2024-03-25T04:23:17;16.13;;;15.32;;
81036;SDS011;70521;47.468;19.306;2024-03-25T04:26:18;13.32;;;12.77;;
81036;SDS011;70521;47.468;19.306;2024-03-25T04:29:19;10.55;;;10.13;;
81036;SDS011;70521;47.468;19.306;2024-03-25T04:32:19;9.57;;;9.15;;
81036;SDS011;70521;47.468;19.306;2024-03-25T04:35:20;10.48;;;9.93;;
81036;SDS011;70521;47.468;19.306;2024-03-25T04:38:21;12.02;;;11.50;;
81036;SDS011;70521;47.468;19.306;2024-03-25T04:41:22;12.00;;;11.40;;
81036;SDS011;70521;47.468;19.306;2024-03-25T04:44:23;16.08;;;15.25;;
81036;SDS011;70521;47.468;19.306;2024-03-25T04:47:24;17.73;;;17.02;;
81036;SDS011;70521;47.468;19.306;2024-03-25T04:50:25;12.93;;;12.35;;
81036;SDS011;70521;47.468;19.306;2024-03-25T04:53:26;14.40;;;13.68;;
81036;SDS011;70521;47.468;19.306;2024-03-25T04:56:26;17.83;;;17.10;;
81036;SDS011;70521;47.468;19.306;2024-03-25T04:59:27;17.40;;;16.67;;
81036;SDS011;70521;47.468;19.306;2024-03-25T05:02:28;14.80;;;14.00;;
81036;SDS011;70521;47.468;19.306;2024-03-25T05:05:29;13.65;;;13.00;;
81036;SDS011;70521;47.468;19.306;2024-03-25T05:08:30;12.82;;;12.30;;
81036;SDS011;70521;47.468;19.306;2024-03-25T05:11:32;16.25;;;15.35;;
81036;SDS011;70521;47.468;19.306;2024-03-25T05:14:33;13.02;;;12.40;;
81036;SDS011;70521;47.468;19.306;2024-03-25T05:17:33;12.88;;;12.25;;
81036;SDS011;70521;47.468;19.306;2024-03-25T05:20:34;12.18;;;11.65;;
81036;SDS011;70521;47.468;19.306;2024-03-25T05:23:35;8.52;;;7.97;;
81036;SDS011;70521;47.468;19.306;2024-03-25T05:26:36;12.98;;;12.40;;
81036;SDS011;70521;47.468;19.306;2024-03-25T05:29:37;13.25;;;12.63;;
81036;SDS011;70521;47.468;19.306;2024-03-25T05:32:38;11.05;;;10.45;;
81036;SDS011;70521;47.468;19.306;2024-03-25T05:35:40;17.52;;;16.60;;
81036;SDS011;70521;47.468;19.306;2024-03-25T05:38:41;12.90;;;12.18;;
81036;SDS011;70521;47.468;19.306;2024-03-25T05:41:45;15.27;;;14.68;;
81036;SDS011;70521;47.468;19.306;2024-03-25T05:44:45;14.35;;;13.68;;
81036;SDS011;70521;47.468;19.306;2024-03-25T05:47:47;18.92;;;18.20;;
81036;SDS011;70521;47.468;19.306;2024-03-25T05:51:01;11.88;;;11.45;;
81036;SDS011;70521;47.468;19.306;2024-03-25T05:54:02;16.75;;;16.17;;
81036;SDS011;70521;47.468;19.306;2024-03-25T05:57:03;17.55;;;16.77;;
81036;SDS011;70521;47.468;19.306;2024-03-25T06:00:04;14.18;;;13.48;;
81036;SDS011;70521;47.468;19.306;2024-03-25T06:03:13;12.13;;;11.15;;
81036;SDS011;70521;47.468;19.306;2024-03-25T06:06:13;16.52;;;15.48;;
81036;SDS011;70521;47.468;19.306;2024-03-25T06:09:14;14.48;;;13.55;;
81036;SDS011;70521;47.468;19.306;2024-03-25T06:12:15;12.50;;;11.35;;
81036;SDS011;70521;47.468;19.306;2024-03-25T06:15:16;9.65;;;9.20;;
81036;SDS011;70521;47.468;19.306;2024-03-25T06:18:17;16.50;;;15.77;;
81036;SDS011;70521;47.468;19.306;2024-03-25T06:21:18;13.20;;;12.60;;
81036;SDS011;70521;47.468;19.306;2024-03-25T06:24:19;14.50;;;13.80;;
81036;SDS011;70521;47.468;19.306;2024-03-25T06:27:20;14.60;;;13.98;;
81036;SDS011;70521;47.468;19.306;2024-03-25T06:30:22;6.90;;;6.60;;
81036;SDS011;70521;47.468;19.306;2024-03-25T06:33:42;11.38;;;10.77;;
81036;SDS011;70521;47.468;19.306;2024-03-25T06:37:02;13.50;;;12.90;;
81036;SDS011;70521;47.468;19.306;2024-03-25T06:40:05;10.95;;;10.45;;
81036;SDS011;70521;47.468;19.306;2024-03-25T06:43:07;11.80;;;11.23;;
81036;SDS011;70521;47.468;19.306;2024-03-25T06:46:08;18.58;;;17.95;;
81036;SDS011;70521;47.468;19.306;2024-03-25T06:49:08;9.93;;;9.43;;
81036;SDS011;70521;47.468;19.306;2024-03-25T06:52:09;8.70;;;8.30;;
81036;SDS011;70521;47.468;19.306;2024-03-25T06:55:10;8.00;;;7.53;;
81036;SDS011;70521;47.468;19.306;2024-03-25T06:58:11;12.48;;;11.98;;
81036;SDS011;70521;47.468;19.306;2024-03-25T07:01:12;7.35;;;6.80;;
81036;SDS011;70521;47.468;19.306;2024-03-25T07:04:13;11.23;;;10.63;;
81036;SDS011;70521;47.468;19.306;2024-03-25T07:07:14;9.02;;;8.55;;
81036;SDS011;70521;47.468;19.306;2024-03-25T07:10:15;7.60;;;7.22;;
81036;SDS011;70521;47.468;19.306;2024-03-25T07:13:16;6.50;;;6.18;;
81036;SDS011;70521;47.468;19.306;2024-03-25T07:16:16;11.82;;;11.32;;
81036;SDS011;70521;47.468;19.306;2024-03-25T07:19:19;7.68;;;7.35;;
81036;SDS011;70521;47.468;19.306;2024-03-25T07:22:19;7.25;;;6.93;;
81036;SDS011;70521;47.468;19.306;2024-03-25T07:25:21;10.35;;;9.93;;
81036;SDS011;70521;47.468;19.306;2024-03-25T07:28:21;7.07;;;6.68;;
81036;SDS011;70521;47.468;19.306;2024-03-25T07:31:22;8.45;;;8.13;;
81036;SDS011;70521;47.468;19.306;2024-03-25T07:34:23;9.50;;;9.07;;
81036;SDS011;70521;47.468;19.306;2024-03-25T07:37:24;5.63;;;5.40;;
81036;SDS011;70521;47.468;19.306;2024-03-25T07:40:25;7.95;;;7.65;;
81036;SDS011;70521;47.468;19.306;2024-03-25T07:43:26;6.22;;;5.93;;
81036;SDS011;70521;47.468;19.306;2024-03-25T07:46:27;10.10;;;9.65;;
81036;SDS011;70521;47.468;19.306;2024-03-25T07:49:28;7.22;;;6.82;;
81036;SDS011;70521;47.468;19.306;2024-03-25T07:52:29;6.38;;;6.07;;
81036;SDS011;70521;47.468;19.306;2024-03-25T07:55:30;7.70;;;7.35;;
81036;SDS011;70521;47.468;19.306;2024-03-25T07:58:31;5.18;;;4.88;;
81036;SDS011;70521;47.468;19.306;2024-03-25T08:01:32;9.45;;;9.10;;
81036;SDS011;70521;47.468;19.306;2024-03-25T08:04:33;6.53;;;6.28;;
81036;SDS011;70521;47.468;19.306;2024-03-25T08:07:34;7.40;;;7.00;;
81036;SDS011;70521;47.468;19.306;2024-03-25T08:10:36;7.50;;;7.10;;
81036;SDS011;70521;47.468;19.306;2024-03-25T08:13:38;5.57;;;5.38;;
81036;SDS011;70521;47.468;19.306;2024-03-25T08:16:39;7.10;;;6.80;;
81036;SDS011;70521;47.468;19.306;2024-03-25T08:19:40;3.28;;;3.08;;
81036;SDS011;70521;47.468;19.306;2024-03-25T08:22:41;4.03;;;3.72;;
81036;SDS011;70521;47.468;19.306;2024-03-25T08:25:41;7.35;;;6.85;;
81036;SDS011;70521;47.468;19.306;2024-03-25T08:28:42;4.38;;;4.18;;
81036;SDS011;70521;47.468;19.306;2024-03-25T08:31:43;4.60;;;4.18;;
81036;SDS011;70521;47.468;19.306;2024-03-25T08:34:44;3.35;;;3.13;;
81036;SDS011;70521;47.468;19.306;2024-03-25T08:37:46;2.88;;;2.67;;
81036;SDS011;70521;47.468;19.306;2024-03-25T08:40:46;3.83;;;3.53;;
81036;SDS011;70521;47.468;19.306;2024-03-25T08:43:47;3.42;;;3.22;;
81036;SDS011;70521;47.468;19.306;2024-03-25T08:46:48;3.13;;;2.92;;
81036;SDS011;70521;47.468;19.306;2024-03-25T08:49:49;5.65;;;3.88;;
81036;SDS011;70521;47.468;19.306;2024-03-25T08:52:52;3.85;;;3.65;;
81036;SDS011;70521;47.468;19.306;2024-03-25T08:55:53;3.08;;;2.88;;
81036;SDS011;70521;47.468;19.306;2024-03-25T08:58:53;2.88;;;2.67;;
81036;SDS011;70521;47.468;19.306;2024-03-25T09:01:55;2.20;;;2.00;;
81036;SDS011;70521;47.468;19.306;2024-03-25T09:04:56;2.67;;;2.28;;
81036;SDS011;70521;47.468;19.306;2024-03-25T09:07:57;2.78;;;2.58;;
81036;SDS011;70521;47.468;19.306;2024-03-25T09:10:59;3.22;;;3.00;;
81036;SDS011;70521;47.468;19.306;2024-03-25T09:14:03;2.50;;;2.25;;
81036;SDS011;70521;47.468;19.306;2024-03-25T09:17:05;1.90;;;1.80;;
81036;SDS011;70521;47.468;19.306;2024-03-25T09:20:06;3.58;;;3.28;;
81036;SDS011;70521;47.468;19.306;2024-03-25T09:23:17;3.00;;;2.80;;
81036;SDS011;70521;47.468;19.306;2024-03-25T09:26:18;4.00;;;3.80;;
81036;SDS011;70521;47.468;19.306;2024-03-25T09:29:18;5.00;;;4.70;;
81036;SDS011;70521;47.468;19.306;2024-03-25T09:32:19;3.05;;;2.85;;
81036;SDS011;70521;47.468;19.306;2024-03-25T09:35:21;3.35;;;3.05;;
81036;SDS011;70521;47.468;19.306;2024-03-25T09:38:22;2.80;;;2.33;;
81036;SDS011;70521;47.468;19.306;2024-03-25T09:41:23;3.05;;;2.85;;
81036;SDS011;70521;47.468;19.306;2024-03-25T09:44:24;3.40;;;3.10;;
81036;SDS011;70521;47.468;19.306;2024-03-25T09:47:25;3.45;;;3.15;;
81036;SDS011;70521;47.468;19.306;2024-03-25T09:50:26;4.03;;;3.72;;
81036;SDS011;70521;47.468;19.306;2024-03-25T09:53:27;3.60;;;3.30;;
81036;SDS011;70521;47.468;19.306;2024-03-25T09:56:28;6.22;;;5.93;;
81036;SDS011;70521;47.468;19.306;2024-03-25T09:59:31;4.10;;;3.90;;
81036;SDS011;70521;47.468;19.306;2024-03-25T10:02:34;5.70;;;5.40;;
81036;SDS011;70521;47.468;19.306;2024-03-25T10:05:37;4.43;;;4.13;;
81036;SDS011;70521;47.468;19.306;2024-03-25T10:08:38;4.53;;;4.32;;
81036;SDS011;70521;47.468;19.306;2024-03-25T10:11:39;4.43;;;4.13;;
81036;SDS011;70521;47.468;19.306;2024-03-25T10:14:40;4.00;;;3.72;;
81036;SDS011;70521;47.468;19.306;2024-03-25T10:17:41;4.25;;;4.03;;
81036;SDS011;70521;47.468;19.306;2024-03-25T10:20:52;5.68;;;5.30;;
81036;SDS011;70521;47.468;19.306;2024-03-25T10:23:53;7.03;;;6.72;;
81036;SDS011;70521;47.468;19.306;2024-03-25T10:26:56;4.97;;;4.68;;
81036;SDS011;70521;47.468;19.306;2024-03-25T10:29:58;4.57;;;4.30;;
81036;SDS011;70521;47.468;19.306;2024-03-25T10:35:59;3.63;;;3.33;;
81036;SDS011;70521;47.468;19.306;2024-03-25T10:39:02;2.55;;;2.35;;
81036;SDS011;70521;47.468;19.306;2024-03-25T10:42:03;1.70;;;1.60;;
81036;SDS011;70521;47.468;19.306;2024-03-25T10:45:06;1.80;;;1.70;;
81036;SDS011;70521;47.468;19.306;2024-03-25T10:51:10;2.40;;;2.20;;
81036;SDS011;70521;47.468;19.306;2024-03-25T10:54:13;2.55;;;2.30;;
81036;SDS011;70521;47.468;19.306;2024-03-25T10:57:16;2.25;;;2.08;;
81036;SDS011;70521;47.468;19.306;2024-03-25T11:00:17;2.40;;;2.20;;
81036;SDS011;70521;47.468;19.306;2024-03-25T11:03:20;2.22;;;1.98;;
81036;SDS011;70521;47.468;19.306;2024-03-25T11:06:22;1.98;;;1.73;;
81036;SDS011;70521;47.468;19.306;2024-03-25T11:09:23;1.58;;;1.48;;
81036;SDS011;70521;47.468;19.306;2024-03-25T11:12:31;2.40;;;2.00;;
81036;SDS011;70521;47.468;19.306;2024-03-25T11:15:36;2.30;;;2.10;;
81036;SDS011;70521;47.468;19.306;2024-03-25T11:18:38;3.05;;;2.55;;
81036;SDS011;70521;47.468;19.306;2024-03-25T11:21:42;3.17;;;2.97;;
81036;SDS011;70521;47.468;19.306;2024-03-25T11:24:43;3.10;;;2.80;;
81036;SDS011;70521;47.468;19.306;2024-03-25T11:27:44;3.28;;;3.08;;
81036;SDS011;70521;47.468;19.306;2024-03-25T11:30:45;2.85;;;2.00;;
81036;SDS011;70521;47.468;19.306;2024-03-25T11:33:47;1.88;;;1.77;;
81036;SDS011;70521;47.468;19.306;2024-03-25T11:36:48;2.10;;;2.00;;
81036;SDS011;70521;47.468;19.306;2024-03-25T11:40:00;2.58;;;2.38;;
81036;SDS011;70521;47.468;19.306;2024-03-25T11:43:01;3.47;;;3.28;;
81036;SDS011;70521;47.468;19.306;2024-03-25T11:46:02;2.85;;;2.72;;
81036;SDS011;70521;47.468;19.306;2024-03-25T11:49:07;3.15;;;2.78;;
81036;SDS011;70521;47.468;19.306;2024-03-25T11:52:09;4.22;;;3.92;;
81036;SDS011;70521;47.468;19.306;2024-03-25T11:55:10;4.70;;;4.40;;
81036;SDS011;70521;47.468;19.306;2024-03-25T11:58:12;5.00;;;4.78;;
81036;SDS011;70521;47.468;19.306;2024-03-25T12:01:13;3.28;;;3.08;;
81036;SDS011;70521;47.468;19.306;2024-03-25T12:04:18;5.00;;;3.50;;
81036;SDS011;70521;47.468;19.306;2024-03-25T12:07:20;4.93;;;4.50;;
81036;SDS011;70521;47.468;19.306;2024-03-25T12:10:21;3.80;;;3.60;;
81036;SDS011;70521;47.468;19.306;2024-03-25T12:13:40;3.58;;;2.85;;
81036;SDS011;70521;47.468;19.306;2024-03-25T12:16:43;3.88;;;3.67;;
81036;SDS011;70521;47.468;19.306;2024-03-25T12:19:44;4.07;;;3.88;;
81036;SDS011;70521;47.468;19.306;2024-03-25T12:22:45;4.80;;;4.45;;
81036;SDS011;70521;47.468;19.306;2024-03-25T12:25:48;3.95;;;3.65;;
81036;SDS011;70521;47.468;19.306;2024-03-25T12:28:49;3.85;;;3.65;;
81036;SDS011;70521;47.468;19.306;2024-03-25T12:31:54;3.95;;;3.55;;
81036;SDS011;70521;47.468;19.306;2024-03-25T12:34:57;3.75;;;2.67;;
81036;SDS011;70521;47.468;19.306;2024-03-25T12:37:58;2.63;;;2.42;;
81036;SDS011;70521;47.468;19.306;2024-03-25T12:44:06;5.10;;;4.43;;
81036;SDS011;70521;47.468;19.306;2024-03-25T12:47:07;3.30;;;3.10;;
81036;SDS011;70521;47.468;19.306;2024-03-25T12:50:08;3.38;;;3.08;;
81036;SDS011;70521;47.468;19.306;2024-03-25T12:53:11;4.93;;;4.63;;
81036;SDS011;70521;47.468;19.306;2024-03-25T12:56:17;4.80;;;4.50;;
81036;SDS011;70521;47.468;19.306;2024-03-25T12:59:18;5.40;;;5.10;;
81036;SDS011;70521;47.468;19.306;2024-03-25T13:02:20;5.75;;;5.43;;
81036;SDS011;70521;47.468;19.306;2024-03-25T13:05:21;5.65;;;5.35;;
81036;SDS011;70521;47.468;19.306;2024-03-25T13:08:22;4.28;;;3.97;;
81036;SDS011;70521;47.468;19.306;2024-03-25T13:11:23;3.22;;;3.03;;
81036;SDS011;70521;47.468;19.306;2024-03-25T13:14:24;3.35;;;3.10;;
81036;SDS011;70521;47.468;19.306;2024-03-25T13:17:25;2.50;;;2.30;;
81036;SDS011;70521;47.468;19.306;2024-03-25T13:20:26;4.28;;;3.95;;
81036;SDS011;70521;47.468;19.306;2024-03-25T13:23:27;2.85;;;2.65;;
81036;SDS011;70521;47.468;19.306;2024-03-25T13:26:28;3.83;;;3.00;;
81036;SDS011;70521;47.468;19.306;2024-03-25T13:29:29;3.55;;;3.35;;
81036;SDS011;70521;47.468;19.306;2024-03-25T13:32:30;4.47;;;4.07;;
81036;SDS011;70521;47.468;19.306;2024-03-25T13:35:31;4.35;;;4.05;;
81036;SDS011;70521;47.468;19.306;2024-03-25T13:38:32;3.45;;;3.15;;
81036;SDS011;70521;47.468;19.306;2024-03-25T13:41:33;5.90;;;5.50;;
81036;SDS011;70521;47.468;19.306;2024-03-25T13:44:34;6.32;;;4.63;;
81036;SDS011;70521;47.468;19.306;2024-03-25T13:47:35;5.45;;;5.05;;
81036;SDS011;70521;47.468;19.306;2024-03-25T13:50:36;9.10;;;8.70;;
81036;SDS011;70521;47.468;19.306;2024-03-25T13:53:38;4.25;;;3.95;;
81036;SDS011;70521;47.468;19.306;2024-03-25T13:56:38;5.35;;;5.05;;
81036;SDS011;70521;47.468;19.306;2024-03-25T13:59:42;4.47;;;4.18;;
81036;SDS011;70521;47.468;19.306;2024-03-25T14:02:43;4.57;;;4.25;;
81036;SDS011;70521;47.468;19.306;2024-03-25T14:05:44;7.30;;;6.80;;
81036;SDS011;70521;47.468;19.306;2024-03-25T14:08:45;4.95;;;4.65;;
81036;SDS011;70521;47.468;19.306;2024-03-25T14:11:46;4.28;;;3.97;;
81036;SDS011;70521;47.468;19.306;2024-03-25T14:14:47;4.63;;;4.22;;
81036;SDS011;70521;47.468;19.306;2024-03-25T14:17:48;5.07;;;4.63;;
81036;SDS011;70521;47.468;19.306;2024-03-25T14:20:51;4.40;;;4.18;;
81036;SDS011;70521;47.468;19.306;2024-03-25T14:23:52;4.70;;;4.40;;
81036;SDS011;70521;47.468;19.306;2024-03-25T14:26:52;4.15;;;3.92;;
81036;SDS011;70521;47.468;19.306;2024-03-25T14:29:54;4.05;;;3.85;;
81036;SDS011;70521;47.468;19.306;2024-03-25T14:32:55;4.18;;;3.97;;
81036;SDS011;70521;47.468;19.306;2024-03-25T14:35:56;8.07;;;7.68;;
81036;SDS011;70521;47.468;19.306;2024-03-25T14:38:57;3.67;;;3.47;;
81036;SDS011;70521;47.468;19.306;2024-03-25T14:41:57;5.03;;;4.63;;
81036;SDS011;70521;47.468;19.306;2024-03-25T14:44:58;5.55;;;5.13;;
81036;SDS011;70521;47.468;19.306;2024-03-25T14:47:59;4.88;;;4.68;;
81036;SDS011;70521;47.468;19.306;2024-03-25T14:51:00;4.20;;;3.97;;
81036;SDS011;70521;47.468;19.306;2024-03-25T14:54:01;22.58;;;7.28;;
81036;SDS011;70521;47.468;19.306;2024-03-25T14:57:02;4.25;;;3.83;;
81036;SDS011;70521;47.468;19.306;2024-03-25T15:00:03;4.47;;;4.25;;
81036;SDS011;70521;47.468;19.306;2024-03-25T15:03:05;4.70;;;4.40;;
81036;SDS011;70521;47.468;19.306;2024-03-25T15:06:06;3.85;;;3.65;;
81036;SDS011;70521;47.468;19.306;2024-03-25T15:09:07;6.55;;;6.15;;
81036;SDS011;70521;47.468;19.306;2024-03-25T15:12:08;3.85;;;3.65;;
81036;SDS011;70521;47.468;19.306;2024-03-25T15:15:09;3.53;;;3.22;;
81036;SDS011;70521;47.468;19.306;2024-03-25T15:18:11;5.03;;;4.72;;
81036;SDS011;70521;47.468;19.306;2024-03-25T15:21:12;4.75;;;4.55;;
81036;SDS011;70521;47.468;19.306;2024-03-25T15:24:13;5.15;;;4.85;;
81036;SDS011;70521;47.468;19.306;2024-03-25T15:27:14;3.88;;;3.58;;
81036;SDS011;70521;47.468;19.306;2024-03-25T15:30:15;6.40;;;6.07;;
81036;SDS011;70521;47.468;19.306;2024-03-25T15:33:16;4.63;;;4.43;;
81036;SDS011;70521;47.468;19.306;2024-03-25T15:36:18;3.95;;;3.75;;
81036;SDS011;70521;47.468;19.306;2024-03-25T15:39:19;4.20;;;3.90;;
81036;SDS011;70521;47.468;19.306;2024-03-25T15:42:20;4.32;;;3.25;;
81036;SDS011;70521;47.468;19.306;2024-03-25T15:45:21;3.97;;;3.67;;
81036;SDS011;70521;47.468;19.306;2024-03-25T15:48:23;3.85;;;3.65;;
81036;SDS011;70521;47.468;19.306;2024-03-25T15:51:24;5.95;;;5.65;;
81036;SDS011;70521;47.468;19.306;2024-03-25T15:54:25;3.60;;;3.40;;
81036;SDS011;70521;47.468;19.306;2024-03-25T15:57:26;3.10;;;2.90;;
81036;SDS011;70521;47.468;19.306;2024-03-25T16:00:27;3.97;;;3.75;;
81036;SDS011;70521;47.468;19.306;2024-03-25T16:03:28;3.80;;;3.45;;
81036;SDS011;70521;47.468;19.306;2024-03-25T16:06:29;4.75;;;4.43;;
81036;SDS011;70521;47.468;19.306;2024-03-25T16:09:30;5.43;;;5.03;;
81036;SDS011;70521;47.468;19.306;2024-03-25T16:12:34;5.32;;;5.03;;
81036;SDS011;70521;47.468;19.306;2024-03-25T16:15:35;5.53;;;5.22;;
81036;SDS011;70521;47.468;19.306;2024-03-25T16:18:36;3.67;;;3.40;;
81036;SDS011;70521;47.468;19.306;2024-03-25T16:21:37;4.13;;;3.85;;
81036;SDS011;70521;47.468;19.306;2024-03-25T16:24:38;6.57;;;6.15;;
81036;SDS011;70521;47.468;19.306;2024-03-25T16:27:39;4.47;;;4.18;;
81036;SDS011;70521;47.468;19.306;2024-03-25T16:30:40;4.47;;;4.18;;
81036;SDS011;70521;47.468;19.306;2024-03-25T16:33:41;6.32;;;5.93;;
81036;SDS011;70521;47.468;19.306;2024-03-25T16:36:42;6.53;;;6.22;;
81036;SDS011;70521;47.468;19.306;2024-03-25T16:39:43;5.15;;;4.85;;
81036;SDS011;70521;47.468;19.306;2024-03-25T16:42:44;6.43;;;6.13;;
81036;SDS011;70521;47.468;19.306;2024-03-25T16:45:45;6.45;;;5.95;;
81036;SDS011;70521;47.468;19.306;2024-03-25T16:48:46;8.90;;;8.40;;
81036;SDS011;70521;47.468;19.306;2024-03-25T16:51:47;5.15;;;4.78;;
81036;SDS011;70521;47.468;19.306;2024-03-25T16:54:48;6.65;;;6.20;;
81036;SDS011;70521;47.468;19.306;2024-03-25T16:57:49;9.57;;;8.88;;
81036;SDS011;70521;47.468;19.306;2024-03-25T17:00:50;12.23;;;11.15;;
81036;SDS011;70521;47.468;19.306;2024-03-25T17:03:52;9.27;;;8.68;;
81036;SDS011;70521;47.468;19.306;2024-03-25T17:06:53;13.27;;;10.15;;
81036;SDS011;70521;47.468;19.306;2024-03-25T17:09:54;10.88;;;8.43;;
81036;SDS011;70521;47.468;19.306;2024-03-25T17:12:55;13.52;;;12.25;;
81036;SDS011;70521;47.468;19.306;2024-03-25T17:15:56;11.10;;;9.43;;
81036;SDS011;70521;47.468;19.306;2024-03-25T17:18:57;7.88;;;7.07;;
81036;SDS011;70521;47.468;19.306;2024-03-25T17:21:58;7.40;;;6.78;;
81036;SDS011;70521;47.468;19.306;2024-03-25T17:24:59;9.55;;;9.05;;
81036;SDS011;70521;47.468;19.306;2024-03-25T17:28:00;7.53;;;6.97;;
81036;SDS011;70521;47.468;19.306;2024-03-25T17:31:04;10.52;;;9.70;;
81036;SDS011;70521;47.468;19.306;2024-03-25T17:34:05;10.13;;;9.52;;
81036;SDS011;70521;47.468;19.306;2024-03-25T17:37:07;10.70;;;9.93;;
81036;SDS011;70521;47.468;19.306;2024-03-25T17:40:08;9.77;;;9.13;;
81036;SDS011;70521;47.468;19.306;2024-03-25T17:43:13;12.55;;;11.82;;
81036;SDS011;70521;47.468;19.306;2024-03-25T17:46:14;11.77;;;11.05;;
81036;SDS011;70521;47.468;19.306;2024-03-25T17:49:15;13.15;;;12.13;;
81036;SDS011;70521;47.468;19.306;2024-03-25T17:52:16;13.95;;;12.75;;